SCVD/ZAL METAR and TAF weather

Enter ICAO airport designator
Station Type Date Time Source
SCVD METAR 2018/12/13 23:00 UTC NOAA

SCVD 132300Z AUTO 28005KT 240V310 9999 FEW032 SCT054 14/10 Q1013


Station Type Date Time Source
SCVD Decoded METAR 2018/12/13 23:00 UTC NOAA

Valdivia, Chile (SCVD) 39-37S 073-05W
Dec 13, 2018 - 06:00 PM EST / 2018.12.13 2300 UTC
Wind: from the W (280 degrees) at 6 MPH (5 KT) (direction variable):0
Visibility: greater than 7 mile(s):0
Sky conditions: partly cloudy
Temperature: 57 F (14 C)
Dew Point: 50 F (10 C)
Relative Humidity: 76%
Pressure (altimeter): 29.91 in. Hg (1013 hPa)
ob: SCVD 132300Z AUTO 28005KT 240V310 9999 FEW032 SCT054 14/10 Q1013
cycle: 23

Station Type Date Time Source
SCVD TAF 2018/12/13 12:00 UTC NOAA

TAF SCVD 131015Z 1312/1324 36010KT 7000 -SHRA BKN030 BKN040 TN07/1312Z TX14/1319Z
BECMG 1315/1317 5000 RA BKN010 BKN020
TEMPO 1317/1320 36010G20KT
BECMG 1321/1323 33010KT


Example: see airport list